sensor_id;sensor_type;location;lat;lon;timestamp;P1;durP1;ratioP1;P2;durP2;ratioP2
22705;SDS011;11520;51.198;4.468;2023-08-06T00:00:15;4.65;;;2.60;;
22705;SDS011;11520;51.198;4.468;2023-08-06T00:02:41;4.45;;;2.53;;
22705;SDS011;11520;51.198;4.468;2023-08-06T00:05:07;3.60;;;2.20;;
22705;SDS011;11520;51.198;4.468;2023-08-06T00:07:32;4.20;;;2.47;;
22705;SDS011;11520;51.198;4.468;2023-08-06T00:09:58;2.95;;;2.28;;
22705;SDS011;11520;51.198;4.468;2023-08-06T00:12:24;3.25;;;2.25;;
22705;SDS011;11520;51.198;4.468;2023-08-06T00:14:50;3.90;;;2.42;;
22705;SDS011;11520;51.198;4.468;2023-08-06T00:17:16;2.75;;;2.55;;
22705;SDS011;11520;51.198;4.468;2023-08-06T00:19:42;7.15;;;3.28;;
22705;SDS011;11520;51.198;4.468;2023-08-06T00:22:07;5.28;;;2.90;;
22705;SDS011;11520;51.198;4.468;2023-08-06T00:24:33;4.72;;;2.78;;
22705;SDS011;11520;51.198;4.468;2023-08-06T00:26:59;5.10;;;3.13;;
22705;SDS011;11520;51.198;4.468;2023-08-06T00:29:25;6.13;;;3.10;;
22705;SDS011;11520;51.198;4.468;2023-08-06T00:31:51;4.95;;;2.95;;
22705;SDS011;11520;51.198;4.468;2023-08-06T00:34:16;4.78;;;2.90;;
22705;SDS011;11520;51.198;4.468;2023-08-06T00:36:42;3.28;;;2.67;;
22705;SDS011;11520;51.198;4.468;2023-08-06T00:39:07;2.97;;;2.65;;
22705;SDS011;11520;51.198;4.468;2023-08-06T00:41:33;5.80;;;3.85;;
22705;SDS011;11520;51.198;4.468;2023-08-06T00:43:59;3.03;;;2.50;;
22705;SDS011;11520;51.198;4.468;2023-08-06T00:46:24;5.07;;;2.67;;
22705;SDS011;11520;51.198;4.468;2023-08-06T00:48:51;3.67;;;2.70;;
22705;SDS011;11520;51.198;4.468;2023-08-06T00:51:16;2.95;;;2.75;;
22705;SDS011;11520;51.198;4.468;2023-08-06T00:53:42;4.53;;;2.90;;
22705;SDS011;11520;51.198;4.468;2023-08-06T00:56:08;4.47;;;2.90;;
22705;SDS011;11520;51.198;4.468;2023-08-06T00:58:35;2.75;;;2.47;;
22705;SDS011;11520;51.198;4.468;2023-08-06T01:01:01;5.57;;;2.97;;
22705;SDS011;11520;51.198;4.468;2023-08-06T01:03:27;4.38;;;3.25;;
22705;SDS011;11520;51.198;4.468;2023-08-06T01:05:53;5.10;;;3.20;;
22705;SDS011;11520;51.198;4.468;2023-08-06T01:13:49;2.83;;;2.40;;
22705;SDS011;11520;51.198;4.468;2023-08-06T01:16:20;2.42;;;2.22;;
22705;SDS011;11520;51.198;4.468;2023-08-06T01:18:47;4.32;;;2.03;;
22705;SDS011;11520;51.198;4.468;2023-08-06T01:21:14;3.50;;;2.25;;
22705;SDS011;11520;51.198;4.468;2023-08-06T01:23:44;4.47;;;2.55;;
22705;SDS011;11520;51.198;4.468;2023-08-06T01:26:30;3.03;;;2.70;;
22705;SDS011;11520;51.198;4.468;2023-08-06T01:29:06;3.90;;;3.00;;
22705;SDS011;11520;51.198;4.468;2023-08-06T01:31:39;3.35;;;2.60;;
22705;SDS011;11520;51.198;4.468;2023-08-06T01:34:09;7.60;;;2.92;;
22705;SDS011;11520;51.198;4.468;2023-08-06T01:36:41;3.88;;;2.92;;
22705;SDS011;11520;51.198;4.468;2023-08-06T01:39:07;4.80;;;2.78;;
22705;SDS011;11520;51.198;4.468;2023-08-06T01:41:33;3.50;;;2.60;;
22705;SDS011;11520;51.198;4.468;2023-08-06T01:43:59;4.75;;;3.00;;
22705;SDS011;11520;51.198;4.468;2023-08-06T01:46:24;6.28;;;3.45;;
22705;SDS011;11520;51.198;4.468;2023-08-06T01:48:50;4.38;;;2.60;;
22705;SDS011;11520;51.198;4.468;2023-08-06T01:51:15;4.90;;;2.40;;
22705;SDS011;11520;51.198;4.468;2023-08-06T01:53:41;5.15;;;3.08;;
22705;SDS011;11520;51.198;4.468;2023-08-06T01:56:06;4.75;;;3.08;;
22705;SDS011;11520;51.198;4.468;2023-08-06T01:58:32;5.55;;;3.22;;
22705;SDS011;11520;51.198;4.468;2023-08-06T02:00:58;4.70;;;3.40;;
22705;SDS011;11520;51.198;4.468;2023-08-06T02:03:23;6.25;;;2.95;;
22705;SDS011;11520;51.198;4.468;2023-08-06T02:05:49;3.78;;;2.85;;
22705;SDS011;11520;51.198;4.468;2023-08-06T02:08:14;6.38;;;3.28;;
22705;SDS011;11520;51.198;4.468;2023-08-06T02:10:40;6.75;;;2.97;;
22705;SDS011;11520;51.198;4.468;2023-08-06T02:13:06;4.65;;;3.40;;
22705;SDS011;11520;51.198;4.468;2023-08-06T02:15:32;5.35;;;3.25;;
22705;SDS011;11520;51.198;4.468;2023-08-06T02:17:57;4.00;;;3.25;;
22705;SDS011;11520;51.198;4.468;2023-08-06T02:20:23;5.80;;;3.20;;
22705;SDS011;11520;51.198;4.468;2023-08-06T02:22:49;5.63;;;4.10;;
22705;SDS011;11520;51.198;4.468;2023-08-06T02:25:14;4.53;;;3.70;;
22705;SDS011;11520;51.198;4.468;2023-08-06T02:27:40;5.60;;;3.60;;
22705;SDS011;11520;51.198;4.468;2023-08-06T02:30:06;5.55;;;3.42;;
22705;SDS011;11520;51.198;4.468;2023-08-06T02:32:33;5.63;;;3.92;;
22705;SDS011;11520;51.198;4.468;2023-08-06T02:35:01;5.35;;;3.55;;
22705;SDS011;11520;51.198;4.468;2023-08-06T02:37:28;6.10;;;3.30;;
22705;SDS011;11520;51.198;4.468;2023-08-06T02:39:53;5.05;;;3.33;;
22705;SDS011;11520;51.198;4.468;2023-08-06T02:42:19;3.78;;;3.15;;
22705;SDS011;11520;51.198;4.468;2023-08-06T02:44:45;6.40;;;3.67;;
22705;SDS011;11520;51.198;4.468;2023-08-06T02:47:10;4.10;;;3.55;;
22705;SDS011;11520;51.198;4.468;2023-08-06T02:49:36;5.15;;;4.00;;
22705;SDS011;11520;51.198;4.468;2023-08-06T02:52:01;6.75;;;4.03;;
22705;SDS011;11520;51.198;4.468;2023-08-06T02:54:27;6.07;;;4.38;;
22705;SDS011;11520;51.198;4.468;2023-08-06T02:56:53;7.15;;;4.80;;
22705;SDS011;11520;51.198;4.468;2023-08-06T02:59:18;6.03;;;3.70;;
22705;SDS011;11520;51.198;4.468;2023-08-06T03:01:44;4.63;;;3.63;;
22705;SDS011;11520;51.198;4.468;2023-08-06T03:04:09;3.88;;;3.40;;
22705;SDS011;11520;51.198;4.468;2023-08-06T03:06:35;6.75;;;3.60;;
22705;SDS011;11520;51.198;4.468;2023-08-06T03:09:00;5.15;;;3.72;;
22705;SDS011;11520;51.198;4.468;2023-08-06T03:11:26;5.70;;;3.97;;
22705;SDS011;11520;51.198;4.468;2023-08-06T03:13:52;3.70;;;3.17;;
22705;SDS011;11520;51.198;4.468;2023-08-06T03:16:17;4.88;;;3.97;;
22705;SDS011;11520;51.198;4.468;2023-08-06T03:18:43;5.78;;;3.63;;
22705;SDS011;11520;51.198;4.468;2023-08-06T03:21:08;3.45;;;2.60;;
22705;SDS011;11520;51.198;4.468;2023-08-06T03:23:34;2.45;;;2.25;;
22705;SDS011;11520;51.198;4.468;2023-08-06T03:26:03;2.10;;;1.80;;
22705;SDS011;11520;51.198;4.468;2023-08-06T03:28:29;5.22;;;1.58;;
22705;SDS011;11520;51.198;4.468;2023-08-06T03:31:01;1.65;;;1.00;;
22705;SDS011;11520;51.198;4.468;2023-08-06T03:33:28;1.48;;;1.02;;
22705;SDS011;11520;51.198;4.468;2023-08-06T03:35:54;1.00;;;0.88;;
22705;SDS011;11520;51.198;4.468;2023-08-06T03:38:19;0.50;;;0.40;;
22705;SDS011;11520;51.198;4.468;2023-08-06T03:40:48;0.68;;;0.50;;
22705;SDS011;11520;51.198;4.468;2023-08-06T03:43:14;1.83;;;0.35;;
22705;SDS011;11520;51.198;4.468;2023-08-06T03:45:41;1.27;;;0.30;;
22705;SDS011;11520;51.198;4.468;2023-08-06T03:48:07;2.75;;;1.15;;
22705;SDS011;11520;51.198;4.468;2023-08-06T03:50:33;1.25;;;0.50;;
22705;SDS011;11520;51.198;4.468;2023-08-06T03:52:59;0.80;;;0.50;;
22705;SDS011;11520;51.198;4.468;2023-08-06T03:55:24;2.28;;;0.50;;
22705;SDS011;11520;51.198;4.468;2023-08-06T03:57:50;1.50;;;0.60;;
22705;SDS011;11520;51.198;4.468;2023-08-06T04:00:16;1.02;;;0.30;;
22705;SDS011;11520;51.198;4.468;2023-08-06T04:02:41;0.30;;;0.30;;
22705;SDS011;11520;51.198;4.468;2023-08-06T04:05:07;0.65;;;0.52;;
22705;SDS011;11520;51.198;4.468;2023-08-06T04:07:33;0.60;;;0.60;;
22705;SDS011;11520;51.198;4.468;2023-08-06T04:10:01;2.25;;;0.57;;
22705;SDS011;11520;51.198;4.468;2023-08-06T04:12:28;1.63;;;0.60;;
22705;SDS011;11520;51.198;4.468;2023-08-06T04:14:54;0.52;;;0.50;;
22705;SDS011;11520;51.198;4.468;2023-08-06T04:17:21;2.35;;;0.90;;
22705;SDS011;11520;51.198;4.468;2023-08-06T04:19:50;4.47;;;1.27;;
22705;SDS011;11520;51.198;4.468;2023-08-06T04:22:17;1.73;;;1.08;;
22705;SDS011;11520;51.198;4.468;2023-08-06T04:24:43;1.80;;;0.90;;
22705;SDS011;11520;51.198;4.468;2023-08-06T04:27:09;2.50;;;0.90;;
22705;SDS011;11520;51.198;4.468;2023-08-06T04:29:35;2.58;;;0.70;;
22705;SDS011;11520;51.198;4.468;2023-08-06T04:32:01;1.17;;;0.80;;
22705;SDS011;11520;51.198;4.468;2023-08-06T04:34:27;4.65;;;1.95;;
22705;SDS011;11520;51.198;4.468;2023-08-06T04:36:52;6.75;;;3.97;;
22705;SDS011;11520;51.198;4.468;2023-08-06T04:39:18;7.82;;;4.93;;
22705;SDS011;11520;51.198;4.468;2023-08-06T04:41:43;10.40;;;4.70;;
22705;SDS011;11520;51.198;4.468;2023-08-06T04:44:09;10.57;;;4.70;;
22705;SDS011;11520;51.198;4.468;2023-08-06T04:46:35;11.38;;;5.38;;
22705;SDS011;11520;51.198;4.468;2023-08-06T04:49:00;10.10;;;4.60;;
22705;SDS011;11520;51.198;4.468;2023-08-06T04:51:26;7.93;;;4.82;;
22705;SDS011;11520;51.198;4.468;2023-08-06T04:53:52;9.13;;;5.85;;
22705;SDS011;11520;51.198;4.468;2023-08-06T04:56:17;11.68;;;5.55;;
22705;SDS011;11520;51.198;4.468;2023-08-06T04:58:43;9.90;;;5.93;;
22705;SDS011;11520;51.198;4.468;2023-08-06T05:01:09;15.50;;;6.82;;
22705;SDS011;11520;51.198;4.468;2023-08-06T05:03:34;12.20;;;7.38;;
22705;SDS011;11520;51.198;4.468;2023-08-06T05:06:00;19.17;;;9.50;;
22705;SDS011;11520;51.198;4.468;2023-08-06T05:08:25;17.27;;;8.45;;
22705;SDS011;11520;51.198;4.468;2023-08-06T05:10:51;14.75;;;7.22;;
22705;SDS011;11520;51.198;4.468;2023-08-06T05:13:16;13.70;;;5.78;;
22705;SDS011;11520;51.198;4.468;2023-08-06T05:15:42;8.65;;;4.25;;
22705;SDS011;11520;51.198;4.468;2023-08-06T05:18:10;11.35;;;4.93;;
22705;SDS011;11520;51.198;4.468;2023-08-06T05:20:36;10.77;;;4.30;;
22705;SDS011;11520;51.198;4.468;2023-08-06T05:23:03;7.80;;;3.58;;
22705;SDS011;11520;51.198;4.468;2023-08-06T05:25:29;12.23;;;3.65;;
22705;SDS011;11520;51.198;4.468;2023-08-06T05:27:55;7.00;;;3.28;;
22705;SDS011;11520;51.198;4.468;2023-08-06T05:30:22;9.15;;;3.60;;
22705;SDS011;11520;51.198;4.468;2023-08-06T05:32:47;11.43;;;5.05;;
22705;SDS011;11520;51.198;4.468;2023-08-06T05:35:13;9.90;;;5.78;;
22705;SDS011;11520;51.198;4.468;2023-08-06T05:37:38;10.05;;;5.53;;
22705;SDS011;11520;51.198;4.468;2023-08-06T05:40:04;11.48;;;5.68;;
22705;SDS011;11520;51.198;4.468;2023-08-06T05:42:30;13.45;;;5.07;;
22705;SDS011;11520;51.198;4.468;2023-08-06T05:44:56;13.07;;;4.47;;
22705;SDS011;11520;51.198;4.468;2023-08-06T05:47:22;13.00;;;4.68;;
22705;SDS011;11520;51.198;4.468;2023-08-06T05:49:47;10.43;;;4.80;;
22705;SDS011;11520;51.198;4.468;2023-08-06T05:52:13;10.95;;;4.55;;
22705;SDS011;11520;51.198;4.468;2023-08-06T05:54:38;9.40;;;4.40;;
22705;SDS011;11520;51.198;4.468;2023-08-06T05:57:05;9.35;;;3.58;;
22705;SDS011;11520;51.198;4.468;2023-08-06T05:59:31;6.95;;;3.38;;
22705;SDS011;11520;51.198;4.468;2023-08-06T06:01:57;9.45;;;4.00;;
22705;SDS011;11520;51.198;4.468;2023-08-06T06:04:22;10.02;;;3.80;;
22705;SDS011;11520;51.198;4.468;2023-08-06T06:06:48;13.23;;;3.83;;
22705;SDS011;11520;51.198;4.468;2023-08-06T06:09:14;12.27;;;3.28;;
22705;SDS011;11520;51.198;4.468;2023-08-06T06:11:39;6.80;;;2.60;;
22705;SDS011;11520;51.198;4.468;2023-08-06T06:14:05;7.53;;;2.78;;
22705;SDS011;11520;51.198;4.468;2023-08-06T06:16:30;5.25;;;2.15;;
22705;SDS011;11520;51.198;4.468;2023-08-06T06:18:56;12.25;;;2.70;;
22705;SDS011;11520;51.198;4.468;2023-08-06T06:21:22;7.07;;;2.70;;
22705;SDS011;11520;51.198;4.468;2023-08-06T06:23:49;8.80;;;2.63;;
22705;SDS011;11520;51.198;4.468;2023-08-06T06:26:16;7.70;;;2.40;;
22705;SDS011;11520;51.198;4.468;2023-08-06T06:28:42;6.78;;;3.00;;
22705;SDS011;11520;51.198;4.468;2023-08-06T06:31:08;8.55;;;3.45;;
22705;SDS011;11520;51.198;4.468;2023-08-06T06:33:34;5.80;;;2.70;;
22705;SDS011;11520;51.198;4.468;2023-08-06T06:36:00;11.45;;;2.78;;
22705;SDS011;11520;51.198;4.468;2023-08-06T06:38:28;8.05;;;3.20;;
22705;SDS011;11520;51.198;4.468;2023-08-06T06:40:54;5.70;;;2.90;;
22705;SDS011;11520;51.198;4.468;2023-08-06T06:43:20;6.47;;;2.67;;
22705;SDS011;11520;51.198;4.468;2023-08-06T06:45:46;12.63;;;3.83;;
22705;SDS011;11520;51.198;4.468;2023-08-06T06:48:11;8.50;;;2.92;;
22705;SDS011;11520;51.198;4.468;2023-08-06T06:50:37;6.30;;;2.58;;
22705;SDS011;11520;51.198;4.468;2023-08-06T06:53:04;8.35;;;2.63;;
22705;SDS011;11520;51.198;4.468;2023-08-06T06:55:30;14.73;;;2.42;;
22705;SDS011;11520;51.198;4.468;2023-08-06T06:57:55;18.38;;;2.83;;
22705;SDS011;11520;51.198;4.468;2023-08-06T07:00:21;5.75;;;1.60;;
22705;SDS011;11520;51.198;4.468;2023-08-06T07:02:48;7.38;;;1.65;;
22705;SDS011;11520;51.198;4.468;2023-08-06T07:05:13;5.47;;;1.52;;
22705;SDS011;11520;51.198;4.468;2023-08-06T07:07:39;6.80;;;1.23;;
22705;SDS011;11520;51.198;4.468;2023-08-06T07:10:05;3.15;;;0.90;;
22705;SDS011;11520;51.198;4.468;2023-08-06T07:12:30;6.25;;;1.52;;
22705;SDS011;11520;51.198;4.468;2023-08-06T07:14:56;4.75;;;1.15;;
22705;SDS011;11520;51.198;4.468;2023-08-06T07:17:22;8.32;;;1.30;;
22705;SDS011;11520;51.198;4.468;2023-08-06T07:19:47;7.40;;;1.50;;
22705;SDS011;11520;51.198;4.468;2023-08-06T07:22:13;7.15;;;1.08;;
22705;SDS011;11520;51.198;4.468;2023-08-06T07:24:39;4.55;;;1.00;;
22705;SDS011;11520;51.198;4.468;2023-08-06T07:27:04;9.48;;;1.20;;
22705;SDS011;11520;51.198;4.468;2023-08-06T07:29:30;5.85;;;1.33;;
22705;SDS011;11520;51.198;4.468;2023-08-06T07:31:56;5.57;;;1.50;;
22705;SDS011;11520;51.198;4.468;2023-08-06T07:34:21;10.07;;;1.00;;
22705;SDS011;11520;51.198;4.468;2023-08-06T07:36:47;10.20;;;1.90;;
22705;SDS011;11520;51.198;4.468;2023-08-06T07:39:13;14.18;;;2.28;;
22705;SDS011;11520;51.198;4.468;2023-08-06T07:41:41;8.60;;;1.80;;
22705;SDS011;11520;51.198;4.468;2023-08-06T07:44:07;12.77;;;2.20;;
22705;SDS011;11520;51.198;4.468;2023-08-06T07:46:33;6.95;;;1.45;;
22705;SDS011;11520;51.198;4.468;2023-08-06T07:48:58;8.38;;;1.38;;
22705;SDS011;11520;51.198;4.468;2023-08-06T07:51:24;6.55;;;1.25;;
22705;SDS011;11520;51.198;4.468;2023-08-06T07:53:49;11.88;;;1.83;;
22705;SDS011;11520;51.198;4.468;2023-08-06T07:56:15;12.45;;;1.60;;
22705;SDS011;11520;51.198;4.468;2023-08-06T07:58:41;7.80;;;1.73;;
22705;SDS011;11520;51.198;4.468;2023-08-06T08:01:06;13.38;;;1.98;;
22705;SDS011;11520;51.198;4.468;2023-08-06T08:03:32;6.80;;;1.13;;
22705;SDS011;11520;51.198;4.468;2023-08-06T08:05:59;7.20;;;1.45;;
22705;SDS011;11520;51.198;4.468;2023-08-06T08:08:24;4.28;;;0.88;;
22705;SDS011;11520;51.198;4.468;2023-08-06T08:10:50;6.57;;;1.30;;
22705;SDS011;11520;51.198;4.468;2023-08-06T08:13:16;11.20;;;1.75;;
22705;SDS011;11520;51.198;4.468;2023-08-06T08:15:41;7.28;;;1.85;;
22705;SDS011;11520;51.198;4.468;2023-08-06T08:18:07;11.95;;;1.40;;
22705;SDS011;11520;51.198;4.468;2023-08-06T08:20:33;7.20;;;1.08;;
22705;SDS011;11520;51.198;4.468;2023-08-06T08:23:00;6.13;;;1.33;;
22705;SDS011;11520;51.198;4.468;2023-08-06T08:25:26;7.38;;;1.00;;
22705;SDS011;11520;51.198;4.468;2023-08-06T08:27:52;5.70;;;0.85;;
22705;SDS011;11520;51.198;4.468;2023-08-06T08:30:18;5.90;;;1.10;;
22705;SDS011;11520;51.198;4.468;2023-08-06T08:32:44;6.38;;;1.30;;
22705;SDS011;11520;51.198;4.468;2023-08-06T08:35:09;6.05;;;1.63;;
22705;SDS011;11520;51.198;4.468;2023-08-06T08:37:37;7.22;;;1.52;;
22705;SDS011;11520;51.198;4.468;2023-08-06T08:40:04;14.52;;;1.80;;
22705;SDS011;11520;51.198;4.468;2023-08-06T08:42:31;8.82;;;1.42;;
22705;SDS011;11520;51.198;4.468;2023-08-06T08:44:58;7.43;;;1.20;;
22705;SDS011;11520;51.198;4.468;2023-08-06T08:47:25;6.93;;;1.20;;
22705;SDS011;11520;51.198;4.468;2023-08-06T08:49:54;7.63;;;1.60;;
22705;SDS011;11520;51.198;4.468;2023-08-06T08:52:21;9.73;;;1.95;;
22705;SDS011;11520;51.198;4.468;2023-08-06T08:54:47;6.68;;;1.42;;
22705;SDS011;11520;51.198;4.468;2023-08-06T08:57:18;10.40;;;1.58;;
22705;SDS011;11520;51.198;4.468;2023-08-06T08:59:44;10.70;;;1.75;;
22705;SDS011;11520;51.198;4.468;2023-08-06T09:02:13;10.75;;;1.38;;
22705;SDS011;11520;51.198;4.468;2023-08-06T09:04:40;7.47;;;2.42;;
22705;SDS011;11520;51.198;4.468;2023-08-06T09:07:08;6.57;;;1.70;;
22705;SDS011;11520;51.198;4.468;2023-08-06T09:09:36;8.43;;;1.15;;
22705;SDS011;11520;51.198;4.468;2023-08-06T09:12:15;5.57;;;1.42;;
22705;SDS011;11520;51.198;4.468;2023-08-06T09:14:41;7.80;;;1.38;;
22705;SDS011;11520;51.198;4.468;2023-08-06T09:17:07;5.95;;;1.15;;
22705;SDS011;11520;51.198;4.468;2023-08-06T09:19:34;6.75;;;1.00;;
22705;SDS011;11520;51.198;4.468;2023-08-06T09:21:59;6.35;;;1.30;;
22705;SDS011;11520;51.198;4.468;2023-08-06T09:24:25;3.50;;;1.42;;
22705;SDS011;11520;51.198;4.468;2023-08-06T09:26:54;5.05;;;0.90;;
22705;SDS011;11520;51.198;4.468;2023-08-06T09:29:19;5.55;;;1.10;;
22705;SDS011;11520;51.198;4.468;2023-08-06T09:31:47;3.55;;;0.73;;
22705;SDS011;11520;51.198;4.468;2023-08-06T09:34:17;4.22;;;0.80;;
22705;SDS011;11520;51.198;4.468;2023-08-06T09:36:47;4.63;;;0.80;;
22705;SDS011;11520;51.198;4.468;2023-08-06T09:39:30;5.78;;;0.93;;
22705;SDS011;11520;51.198;4.468;2023-08-06T09:41:59;4.25;;;0.70;;
22705;SDS011;11520;51.198;4.468;2023-08-06T09:44:29;5.68;;;0.73;;
22705;SDS011;11520;51.198;4.468;2023-08-06T09:46:57;4.55;;;0.60;;
22705;SDS011;11520;51.198;4.468;2023-08-06T09:49:27;3.42;;;1.27;;
22705;SDS011;11520;51.198;4.468;2023-08-06T09:52:12;6.40;;;0.98;;
22705;SDS011;11520;51.198;4.468;2023-08-06T09:54:38;1.40;;;0.60;;
22705;SDS011;11520;51.198;4.468;2023-08-06T09:57:05;3.65;;;0.80;;
22705;SDS011;11520;51.198;4.468;2023-08-06T09:59:32;2.90;;;0.77;;
22705;SDS011;11520;51.198;4.468;2023-08-06T10:01:58;9.38;;;1.23;;
22705;SDS011;11520;51.198;4.468;2023-08-06T10:04:24;4.93;;;0.90;;
22705;SDS011;11520;51.198;4.468;2023-08-06T10:06:51;7.32;;;1.10;;
22705;SDS011;11520;51.198;4.468;2023-08-06T10:09:18;2.63;;;0.60;;
22705;SDS011;11520;51.198;4.468;2023-08-06T10:11:47;5.75;;;0.80;;
22705;SDS011;11520;51.198;4.468;2023-08-06T10:14:28;3.13;;;0.60;;
22705;SDS011;11520;51.198;4.468;2023-08-06T10:16:57;5.93;;;1.00;;
22705;SDS011;11520;51.198;4.468;2023-08-06T10:19:26;5.10;;;0.90;;
22705;SDS011;11520;51.198;4.468;2023-08-06T10:22:08;6.00;;;0.98;;
22705;SDS011;11520;51.198;4.468;2023-08-06T10:24:48;5.85;;;1.27;;
22705;SDS011;11520;51.198;4.468;2023-08-06T10:27:22;7.20;;;1.15;;
22705;SDS011;11520;51.198;4.468;2023-08-06T10:29:55;8.00;;;1.38;;
22705;SDS011;11520;51.198;4.468;2023-08-06T10:32:20;7.68;;;1.88;;
22705;SDS011;11520;51.198;4.468;2023-08-06T10:39:50;5.03;;;1.15;;
22705;SDS011;11520;51.198;4.468;2023-08-06T10:42:20;5.68;;;1.00;;
22705;SDS011;11520;51.198;4.468;2023-08-06T10:45:11;6.45;;;0.93;;
22705;SDS011;11520;51.198;4.468;2023-08-06T10:47:44;7.45;;;1.10;;
22705;SDS011;11520;51.198;4.468;2023-08-06T10:50:15;4.82;;;0.80;;
22705;SDS011;11520;51.198;4.468;2023-08-06T10:52:46;6.88;;;0.90;;
22705;SDS011;11520;51.198;4.468;2023-08-06T10:55:12;9.63;;;1.20;;
22705;SDS011;11520;51.198;4.468;2023-08-06T10:57:39;2.92;;;0.57;;
22705;SDS011;11520;51.198;4.468;2023-08-06T11:00:05;5.13;;;0.90;;
22705;SDS011;11520;51.198;4.468;2023-08-06T11:02:33;4.80;;;1.02;;
22705;SDS011;11520;51.198;4.468;2023-08-06T11:05:07;3.35;;;0.70;;
22705;SDS011;11520;51.198;4.468;2023-08-06T11:10:05;3.05;;;0.70;;
22705;SDS011;11520;51.198;4.468;2023-08-06T11:12:33;2.70;;;0.60;;
22705;SDS011;11520;51.198;4.468;2023-08-06T11:14:59;3.95;;;0.80;;
22705;SDS011;11520;51.198;4.468;2023-08-06T11:17:29;10.88;;;1.27;;
22705;SDS011;11520;51.198;4.468;2023-08-06T11:20:00;6.05;;;0.77;;
22705;SDS011;11520;51.198;4.468;2023-08-06T11:22:29;5.38;;;0.80;;
22705;SDS011;11520;51.198;4.468;2023-08-06T11:24:55;3.70;;;0.90;;
22705;SDS011;11520;51.198;4.468;2023-08-06T11:27:21;5.97;;;0.90;;
22705;SDS011;11520;51.198;4.468;2023-08-06T11:29:47;7.45;;;0.93;;
22705;SDS011;11520;51.198;4.468;2023-08-06T11:32:12;6.82;;;1.33;;
22705;SDS011;11520;51.198;4.468;2023-08-06T11:34:38;6.47;;;1.13;;
22705;SDS011;11520;51.198;4.468;2023-08-06T11:37:05;4.68;;;1.05;;
22705;SDS011;11520;51.198;4.468;2023-08-06T11:39:34;3.35;;;1.02;;
22705;SDS011;11520;51.198;4.468;2023-08-06T11:42:04;6.47;;;1.30;;
22705;SDS011;11520;51.198;4.468;2023-08-06T11:44:35;9.07;;;1.25;;
22705;SDS011;11520;51.198;4.468;2023-08-06T11:47:04;9.82;;;2.05;;
22705;SDS011;11520;51.198;4.468;2023-08-06T11:49:37;7.70;;;1.50;;
22705;SDS011;11520;51.198;4.468;2023-08-06T11:52:20;7.47;;;1.60;;
22705;SDS011;11520;51.198;4.468;2023-08-06T11:55:03;7.93;;;1.45;;
22705;SDS011;11520;51.198;4.468;2023-08-06T11:57:35;5.32;;;1.00;;
22705;SDS011;11520;51.198;4.468;2023-08-06T12:00:06;5.15;;;1.55;;
22705;SDS011;11520;51.198;4.468;2023-08-06T12:02:34;10.40;;;1.55;;
22705;SDS011;11520;51.198;4.468;2023-08-06T12:05:10;5.45;;;1.70;;
22705;SDS011;11520;51.198;4.468;2023-08-06T12:07:38;7.40;;;1.60;;
22705;SDS011;11520;51.198;4.468;2023-08-06T12:10:07;6.53;;;1.35;;
22705;SDS011;11520;51.198;4.468;2023-08-06T12:12:36;12.27;;;1.65;;
22705;SDS011;11520;51.198;4.468;2023-08-06T12:15:03;7.60;;;1.35;;
22705;SDS011;11520;51.198;4.468;2023-08-06T12:17:31;6.32;;;1.63;;
22705;SDS011;11520;51.198;4.468;2023-08-06T12:19:56;8.07;;;1.20;;
22705;SDS011;11520;51.198;4.468;2023-08-06T12:22:22;6.85;;;1.77;;
22705;SDS011;11520;51.198;4.468;2023-08-06T12:24:48;12.52;;;0.98;;
22705;SDS011;11520;51.198;4.468;2023-08-06T12:27:14;4.85;;;1.02;;
22705;SDS011;11520;51.198;4.468;2023-08-06T12:29:43;7.38;;;1.42;;
22705;SDS011;11520;51.198;4.468;2023-08-06T12:32:10;9.15;;;1.67;;
22705;SDS011;11520;51.198;4.468;2023-08-06T12:34:37;11.13;;;1.98;;
22705;SDS011;11520;51.198;4.468;2023-08-06T12:37:07;6.07;;;1.30;;
22705;SDS011;11520;51.198;4.468;2023-08-06T12:39:35;11.45;;;2.00;;
22705;SDS011;11520;51.198;4.468;2023-08-06T12:42:02;8.38;;;1.45;;
22705;SDS011;11520;51.198;4.468;2023-08-06T12:44:29;5.63;;;1.30;;
22705;SDS011;11520;51.198;4.468;2023-08-06T12:46:55;7.13;;;1.25;;
22705;SDS011;11520;51.198;4.468;2023-08-06T12:49:21;6.85;;;1.23;;
22705;SDS011;11520;51.198;4.468;2023-08-06T12:51:48;5.40;;;1.02;;
22705;SDS011;11520;51.198;4.468;2023-08-06T12:54:14;7.30;;;1.95;;
22705;SDS011;11520;51.198;4.468;2023-08-06T12:56:41;7.03;;;1.30;;
22705;SDS011;11520;51.198;4.468;2023-08-06T12:59:07;5.88;;;0.90;;
22705;SDS011;11520;51.198;4.468;2023-08-06T13:01:32;6.15;;;0.75;;
22705;SDS011;11520;51.198;4.468;2023-08-06T13:03:59;5.93;;;1.88;;
22705;SDS011;11520;51.198;4.468;2023-08-06T13:06:25;4.85;;;1.20;;
22705;SDS011;11520;51.198;4.468;2023-08-06T13:08:50;7.05;;;0.90;;
22705;SDS011;11520;51.198;4.468;2023-08-06T13:11:16;3.83;;;1.00;;
22705;SDS011;11520;51.198;4.468;2023-08-06T13:13:42;3.20;;;0.75;;
22705;SDS011;11520;51.198;4.468;2023-08-06T13:16:07;5.38;;;1.25;;
22705;SDS011;11520;51.198;4.468;2023-08-06T13:18:33;4.93;;;1.00;;
22705;SDS011;11520;51.198;4.468;2023-08-06T13:20:59;3.95;;;0.70;;
22705;SDS011;11520;51.198;4.468;2023-08-06T13:23:24;2.33;;;0.80;;
22705;SDS011;11520;51.198;4.468;2023-08-06T13:25:50;4.47;;;0.77;;
22705;SDS011;11520;51.198;4.468;2023-08-06T13:28:16;5.25;;;1.10;;
22705;SDS011;11520;51.198;4.468;2023-08-06T13:30:41;4.03;;;1.00;;
22705;SDS011;11520;51.198;4.468;2023-08-06T13:33:07;4.95;;;0.80;;
22705;SDS011;11520;51.198;4.468;2023-08-06T13:35:33;5.75;;;0.60;;
22705;SDS011;11520;51.198;4.468;2023-08-06T13:37:59;9.90;;;0.80;;
22705;SDS011;11520;51.198;4.468;2023-08-06T13:40:27;8.45;;;1.15;;
22705;SDS011;11520;51.198;4.468;2023-08-06T13:42:53;4.72;;;1.10;;
22705;SDS011;11520;51.198;4.468;2023-08-06T13:45:19;6.93;;;1.88;;
22705;SDS011;11520;51.198;4.468;2023-08-06T13:47:45;6.15;;;1.33;;
22705;SDS011;11520;51.198;4.468;2023-08-06T13:50:10;4.95;;;1.20;;
22705;SDS011;11520;51.198;4.468;2023-08-06T13:52:36;4.32;;;1.10;;
22705;SDS011;11520;51.198;4.468;2023-08-06T13:55:01;9.80;;;1.98;;
22705;SDS011;11520;51.198;4.468;2023-08-06T13:57:29;12.98;;;1.50;;
22705;SDS011;11520;51.198;4.468;2023-08-06T13:59:56;6.03;;;1.58;;
22705;SDS011;11520;51.198;4.468;2023-08-06T14:02:22;6.93;;;1.95;;
22705;SDS011;11520;51.198;4.468;2023-08-06T14:04:47;10.25;;;1.58;;
22705;SDS011;11520;51.198;4.468;2023-08-06T14:07:13;5.22;;;1.02;;
22705;SDS011;11520;51.198;4.468;2023-08-06T14:09:39;7.82;;;1.45;;
22705;SDS011;11520;51.198;4.468;2023-08-06T14:12:05;8.75;;;2.40;;
22705;SDS011;11520;51.198;4.468;2023-08-06T14:14:31;9.70;;;1.58;;
22705;SDS011;11520;51.198;4.468;2023-08-06T14:16:57;6.07;;;1.60;;
22705;SDS011;11520;51.198;4.468;2023-08-06T14:19:22;5.32;;;1.10;;
22705;SDS011;11520;51.198;4.468;2023-08-06T14:21:48;8.90;;;1.30;;
22705;SDS011;11520;51.198;4.468;2023-08-06T14:24:14;5.00;;;1.27;;
22705;SDS011;11520;51.198;4.468;2023-08-06T14:26:40;10.20;;;1.55;;
22705;SDS011;11520;51.198;4.468;2023-08-06T14:29:05;5.70;;;1.52;;
22705;SDS011;11520;51.198;4.468;2023-08-06T14:31:31;10.93;;;2.55;;
22705;SDS011;11520;51.198;4.468;2023-08-06T14:33:59;9.95;;;2.67;;
22705;SDS011;11520;51.198;4.468;2023-08-06T14:36:25;8.57;;;2.47;;
22705;SDS011;11520;51.198;4.468;2023-08-06T14:38:51;5.95;;;2.28;;
22705;SDS011;11520;51.198;4.468;2023-08-06T14:41:17;5.47;;;2.42;;
22705;SDS011;11520;51.198;4.468;2023-08-06T14:43:43;5.97;;;1.08;;
22705;SDS011;11520;51.198;4.468;2023-08-06T14:46:08;5.70;;;1.33;;
22705;SDS011;11520;51.198;4.468;2023-08-06T14:48:34;5.88;;;1.45;;
22705;SDS011;11520;51.198;4.468;2023-08-06T14:50:59;11.80;;;1.52;;
22705;SDS011;11520;51.198;4.468;2023-08-06T14:53:26;7.25;;;1.60;;
22705;SDS011;11520;51.198;4.468;2023-08-06T14:55:51;9.63;;;1.75;;